Terminal Aerodrome Forecast
Issued by NWS Sterling, VA

Current Version | Previous Version | Text Only | Print | Product List | Glossary Off
Versions: 1 2 3 4 5 6 7 8 9 10 11 12 13 14 15 16 17 18 19 20 21 22 23

936
FTUS41 KLWX 272323
TAFDCA
TAF
KDCA 272323Z 2800/2824 VRB03KT P6SM SCT050 SCT150 BKN250
     FM281800 VRB03KT P6SM VCSH SCT050 SCT150 BKN200=

USA.gov is the U.S. government's official web portal to all federal, state and local government web resources and services.